createdAt,value
2022-12-19T00:00:42.040Z,14.9
2022-12-19T00:01:52.145Z,14.9
2022-12-19T00:03:02.261Z,14.9
2022-12-19T00:04:12.000Z,14.9
2022-12-19T00:05:22.498Z,14.9
2022-12-19T00:06:32.619Z,14.8
2022-12-19T00:07:41.753Z,14.9
2022-12-19T00:08:51.878Z,14.9
2022-12-19T00:10:01.978Z,14.9
2022-12-19T00:11:12.107Z,14.9
2022-12-19T00:12:22.212Z,14.9
2022-12-19T00:13:32.000Z,14.8
2022-12-19T00:14:42.455Z,14.9
2022-12-19T00:15:52.000Z,14.9
2022-12-19T00:17:02.687Z,14.8
2022-12-19T00:18:12.803Z,14.8
2022-12-19T00:19:22.918Z,14.8
2022-12-19T00:20:33.026Z,14.8
2022-12-19T00:21:43.152Z,14.9
2022-12-19T00:22:52.270Z,14.8
2022-12-19T00:24:02.397Z,14.8
2022-12-19T00:25:12.500Z,14.8
2022-12-19T00:26:22.619Z,14.9
2022-12-19T00:27:32.748Z,14.9
2022-12-19T00:28:42.850Z,14.8
2022-12-19T00:29:52.976Z,14.8
2022-12-19T00:31:03.097Z,14.8
2022-12-19T00:32:13.208Z,14.8
2022-12-19T00:33:23.323Z,14.8
2022-12-19T00:34:33.427Z,14.8
2022-12-19T00:35:43.564Z,14.8
2022-12-19T00:36:53.000Z,14.8
2022-12-19T00:38:02.796Z,14.8
2022-12-19T00:39:12.913Z,14.8
2022-12-19T00:40:23.024Z,14.8
2022-12-19T00:41:33.153Z,14.8
2022-12-19T00:42:43.260Z,14.8
2022-12-19T00:43:53.384Z,14.8
2022-12-19T00:45:03.487Z,14.8
2022-12-19T00:46:13.614Z,14.8
2022-12-19T00:47:23.721Z,14.8
2022-12-19T00:48:33.836Z,14.8
2022-12-19T00:49:43.959Z,14.8
2022-12-19T00:50:54.081Z,14.8
2022-12-19T00:52:04.184Z,14.8
2022-12-19T00:53:13.327Z,14.8
2022-12-19T00:54:23.444Z,14.8
2022-12-19T00:55:33.564Z,14.8
2022-12-19T00:56:43.674Z,14.8
2022-12-19T00:57:53.795Z,14.8
2022-12-19T00:59:03.900Z,14.8
2022-12-19T01:00:14.000Z,14.8
2022-12-19T01:02:34.248Z,14.8
2022-12-19T01:03:44.369Z,14.8
2022-12-19T01:04:54.475Z,14.8
2022-12-19T01:06:04.593Z,14.8
2022-12-19T01:07:14.712Z,14.8
2022-12-19T01:09:33.958Z,14.8
2022-12-19T01:10:44.083Z,14.8
2022-12-19T01:11:54.000Z,14.8
2022-12-19T01:13:04.316Z,14.8
2022-12-19T01:14:14.431Z,14.8
2022-12-19T01:15:24.547Z,14.8
2022-12-19T01:16:34.664Z,14.8
2022-12-19T01:17:44.000Z,14.8
2022-12-19T01:18:54.000Z,14.8
2022-12-19T01:20:05.008Z,14.8
2022-12-19T01:21:15.131Z,14.8
2022-12-19T01:23:35.346Z,14.8
2022-12-19T01:24:44.496Z,14.8
2022-12-19T01:25:53.624Z,14.8
2022-12-19T01:27:02.762Z,14.8
2022-12-19T01:28:11.899Z,14.8
2022-12-19T01:29:22.026Z,14.8
2022-12-19T01:30:32.128Z,14.8
2022-12-19T01:31:42.256Z,14.8
2022-12-19T01:32:52.372Z,14.8
2022-12-19T01:34:02.483Z,14.8
2022-12-19T01:35:12.000Z,14.8
2022-12-19T01:36:22.717Z,14.8
2022-12-19T01:37:32.823Z,14.8
2022-12-19T01:38:42.950Z,14.8
2022-12-19T01:39:52.099Z,14.8
2022-12-19T01:41:01.229Z,14.8
2022-12-19T01:42:10.000Z,14.8
2022-12-19T01:43:19.495Z,14.8
2022-12-19T01:44:29.623Z,14.8
2022-12-19T01:45:39.723Z,14.8
2022-12-19T01:46:48.000Z,14.8
2022-12-19T01:47:57.998Z,14.8
2022-12-19T01:49:08.120Z,14.8
2022-12-19T01:50:18.235Z,14.8
2022-12-19T01:51:28.348Z,14.8
2022-12-19T01:52:38.458Z,14.8
2022-12-19T01:53:48.580Z,14.8
2022-12-19T01:54:58.704Z,14.8
2022-12-19T01:56:07.862Z,14.8
2022-12-19T01:57:16.968Z,14.8
2022-12-19T01:58:27.095Z,14.8
2022-12-19T01:59:37.000Z,14.8
2022-12-19T02:00:47.333Z,14.8
2022-12-19T02:01:57.430Z,14.8
2022-12-19T02:03:07.557Z,14.8
2022-12-19T02:04:17.668Z,14.8
2022-12-19T02:05:27.779Z,14.8
2022-12-19T02:06:37.903Z,14.8
2022-12-19T02:07:48.018Z,14.8
2022-12-19T02:08:58.126Z,14.8
2022-12-19T02:10:08.000Z,14.8
2022-12-19T02:11:18.365Z,14.8
2022-12-19T02:12:27.500Z,14.8
2022-12-19T02:13:37.607Z,14.8
2022-12-19T02:14:47.733Z,14.8
2022-12-19T02:15:57.863Z,14.8
2022-12-19T02:17:07.956Z,14.8
2022-12-19T02:18:18.082Z,14.8
2022-12-19T02:19:28.200Z,14.8
2022-12-19T02:20:37.000Z,14.8
2022-12-19T02:21:46.461Z,14.8
2022-12-19T02:22:56.585Z,14.8
2022-12-19T02:24:06.000Z,14.8
2022-12-19T02:25:16.824Z,14.8
2022-12-19T02:26:26.928Z,14.8
2022-12-19T02:27:37.044Z,14.8
2022-12-19T02:28:47.169Z,14.8
2022-12-19T02:29:57.289Z,14.8
2022-12-19T02:32:17.528Z,14.8
2022-12-19T02:33:27.000Z,14.8
2022-12-19T02:34:37.750Z,14.8
2022-12-19T02:35:47.862Z,14.8
2022-12-19T02:36:57.001Z,14.8
2022-12-19T02:38:07.108Z,14.8
2022-12-19T02:39:17.227Z,14.8
2022-12-19T02:40:27.330Z,14.8
2022-12-19T02:41:37.447Z,14.8
2022-12-19T02:42:47.563Z,14.8
2022-12-19T02:43:57.686Z,14.8
2022-12-19T02:45:07.796Z,14.8
2022-12-19T02:46:17.917Z,14.8
2022-12-19T02:47:28.028Z,14.8
2022-12-19T02:48:38.151Z,14.8
2022-12-19T02:49:48.259Z,14.8
2022-12-19T02:50:58.376Z,14.8
2022-12-19T02:52:07.517Z,14.8
2022-12-19T02:53:17.627Z,14.8
2022-12-19T02:54:27.753Z,14.8
2022-12-19T02:55:37.860Z,14.8
2022-12-19T02:56:47.975Z,14.8
2022-12-19T02:57:58.095Z,14.8
2022-12-19T02:59:08.222Z,14.8
2022-12-19T03:00:18.329Z,14.8
2022-12-19T03:01:28.464Z,14.8
2022-12-19T03:02:38.551Z,14.8
2022-12-19T03:03:48.000Z,14.8
2022-12-19T03:04:58.786Z,14.8
2022-12-19T03:06:08.917Z,14.8
2022-12-19T03:07:18.036Z,14.8
2022-12-19T03:08:28.148Z,14.8
2022-12-19T03:09:38.270Z,14.8
2022-12-19T03:10:48.000Z,14.8
2022-12-19T03:11:58.496Z,14.8
2022-12-19T03:13:08.625Z,14.8
2022-12-19T03:14:18.727Z,14.8
2022-12-19T03:15:28.856Z,14.8
2022-12-19T03:16:38.971Z,14.8
2022-12-19T03:17:49.088Z,14.8
2022-12-19T03:20:09.317Z,14.8
2022-12-19T03:22:29.546Z,14.7
2022-12-19T03:23:38.671Z,14.8
2022-12-19T03:24:48.804Z,14.8
2022-12-19T03:27:09.027Z,14.8
2022-12-19T03:28:18.172Z,14.8
2022-12-19T03:29:27.297Z,14.8
2022-12-19T03:30:36.449Z,14.8
2022-12-19T03:31:45.000Z,14.8
2022-12-19T03:32:55.688Z,14.8
2022-12-19T03:34:05.000Z,14.8
2022-12-19T03:35:15.921Z,14.8
2022-12-19T03:36:26.042Z,14.8
2022-12-19T03:37:36.154Z,14.8
2022-12-19T03:38:46.274Z,14.8
2022-12-19T03:39:55.420Z,14.8
2022-12-19T03:41:04.561Z,14.8
2022-12-19T03:42:13.692Z,14.8
2022-12-19T03:43:22.000Z,14.8
2022-12-19T03:44:32.950Z,14.8
2022-12-19T03:45:43.058Z,14.8
2022-12-19T03:46:53.194Z,14.8
2022-12-19T03:48:03.282Z,14.8
2022-12-19T03:49:13.413Z,14.8
2022-12-19T03:50:23.528Z,14.8
2022-12-19T03:51:33.629Z,14.7
2022-12-19T03:52:43.756Z,14.7
2022-12-19T03:55:03.000Z,14.8
2022-12-19T03:56:14.102Z,14.8
2022-12-19T03:57:24.000Z,14.7
2022-12-19T03:58:33.000Z,14.8
2022-12-19T03:59:43.467Z,14.8
2022-12-19T04:00:53.588Z,14.8
2022-12-19T04:02:03.695Z,14.8
2022-12-19T04:03:13.813Z,14.8
2022-12-19T04:04:23.932Z,14.8
2022-12-19T04:05:34.040Z,14.8
2022-12-19T04:06:44.165Z,14.8
2022-12-19T04:07:53.298Z,14.8
2022-12-19T04:09:02.435Z,14.8
2022-12-19T04:10:12.561Z,14.8
2022-12-19T04:11:22.667Z,14.8
2022-12-19T04:12:32.782Z,14.8
2022-12-19T04:13:42.000Z,14.8
2022-12-19T04:14:52.034Z,14.8
2022-12-19T04:17:11.296Z,14.9
2022-12-19T04:18:20.435Z,14.9
2022-12-19T04:19:29.573Z,14.9
2022-12-19T04:20:39.683Z,15
2022-12-19T04:21:49.807Z,15
2022-12-19T04:22:59.914Z,15
2022-12-19T04:24:10.031Z,15.1
2022-12-19T04:25:20.150Z,15.1
2022-12-19T04:26:30.000Z,15.1
2022-12-19T04:27:40.378Z,15.2
2022-12-19T04:28:50.499Z,15.2
2022-12-19T04:30:00.607Z,15.3
2022-12-19T04:31:10.728Z,15.3
2022-12-19T04:32:20.849Z,15.4
2022-12-19T04:33:30.955Z,15.4
2022-12-19T04:34:40.079Z,15.4
2022-12-19T04:35:50.211Z,15.5
2022-12-19T04:37:00.323Z,15.5
2022-12-19T04:38:10.426Z,15.6
2022-12-19T04:39:20.585Z,15.6
2022-12-19T04:40:30.690Z,15.6
2022-12-19T04:41:40.812Z,15.7
2022-12-19T04:42:49.961Z,15.7
2022-12-19T04:43:59.080Z,15.8
2022-12-19T04:45:08.237Z,15.8
2022-12-19T04:46:17.357Z,15.9
2022-12-19T04:47:27.466Z,15.9
2022-12-19T04:48:37.600Z,15.9
2022-12-19T04:50:57.833Z,16
2022-12-19T04:52:07.936Z,16.1
2022-12-19T04:53:18.000Z,16.1
2022-12-19T04:54:28.176Z,16.1
2022-12-19T04:55:38.296Z,16.2
2022-12-19T04:56:48.405Z,16.2
2022-12-19T04:57:58.522Z,16.3
2022-12-19T04:59:08.626Z,16.3
2022-12-19T05:00:18.761Z,16.3
2022-12-19T05:01:27.892Z,16.4
2022-12-19T05:02:38.007Z,16.4
2022-12-19T05:03:48.119Z,16.5
2022-12-19T05:04:58.000Z,16.5
2022-12-19T05:06:08.347Z,16.6
2022-12-19T05:07:18.489Z,16.6
2022-12-19T05:08:28.599Z,16.6
2022-12-19T05:09:38.720Z,16.6
2022-12-19T05:10:47.863Z,16.7
2022-12-19T05:11:56.996Z,16.7
2022-12-19T05:13:07.112Z,16.7
2022-12-19T05:14:17.219Z,16.7
2022-12-19T05:15:27.337Z,16.8
2022-12-19T05:16:37.000Z,16.8
2022-12-19T05:17:47.574Z,16.9
2022-12-19T05:18:57.689Z,16.9
2022-12-19T05:20:07.813Z,16.9
2022-12-19T05:21:17.921Z,16.9
2022-12-19T05:22:28.035Z,16.9
2022-12-19T05:23:38.149Z,17
2022-12-19T05:24:48.270Z,17
2022-12-19T05:25:58.383Z,17
2022-12-19T05:37:38.594Z,17.2
2022-12-19T05:38:47.747Z,17.3
2022-12-19T05:39:56.879Z,17.3
2022-12-19T05:42:16.000Z,17.3
2022-12-19T05:43:25.263Z,17.3
2022-12-19T05:44:35.390Z,17.3
2022-12-19T05:45:45.494Z,17.4
2022-12-19T05:46:55.622Z,17.4
2022-12-19T05:48:05.728Z,17.4
2022-12-19T05:50:25.957Z,17.4
2022-12-19T05:51:36.084Z,17.4
2022-12-19T05:53:56.000Z,17.5
2022-12-19T05:56:16.544Z,17.5
2022-12-19T05:57:26.000Z,17.5
2022-12-19T05:58:35.780Z,17.6
2022-12-19T05:59:45.907Z,17.6
2022-12-19T06:00:56.012Z,17.6
2022-12-19T06:02:06.134Z,17.6
2022-12-19T06:03:16.261Z,17.6
2022-12-19T06:04:26.371Z,17.6
2022-12-19T06:05:36.478Z,17.7
2022-12-19T06:06:46.605Z,17.7
2022-12-19T06:07:56.719Z,17.7
2022-12-19T06:09:06.824Z,17.7
2022-12-19T06:10:16.950Z,17.7
2022-12-19T06:11:27.076Z,17.7
2022-12-19T06:12:37.185Z,17.7
2022-12-19T06:13:46.314Z,17.7
2022-12-19T06:14:56.419Z,17.7
2022-12-19T06:16:06.538Z,17.7
2022-12-19T06:17:16.660Z,17.8
2022-12-19T06:18:25.823Z,17.8
2022-12-19T06:19:34.930Z,17.8
2022-12-19T06:20:45.059Z,17.8
2022-12-19T06:21:55.171Z,17.8
2022-12-19T06:23:05.282Z,17.8
2022-12-19T06:24:15.399Z,17.8
2022-12-19T06:25:25.516Z,17.8
2022-12-19T06:26:35.629Z,17.8
2022-12-19T06:28:55.852Z,17.9
2022-12-19T06:30:05.976Z,17.9
2022-12-19T06:31:16.091Z,17.9
2022-12-19T06:32:26.217Z,17.9
2022-12-19T06:33:36.324Z,17.9
2022-12-19T06:34:45.462Z,17.9
2022-12-19T06:35:55.576Z,17.9
2022-12-19T06:37:05.689Z,18
2022-12-19T06:38:15.000Z,18
2022-12-19T06:39:25.925Z,18
2022-12-19T06:40:36.034Z,18
2022-12-19T06:42:56.262Z,18
2022-12-19T06:44:06.389Z,18
2022-12-19T06:45:16.504Z,18.1
2022-12-19T06:46:26.607Z,18.1
2022-12-19T06:47:36.721Z,18.1
2022-12-19T06:48:46.844Z,18.1
2022-12-19T06:49:55.975Z,18.1
2022-12-19T06:51:06.108Z,18.1
2022-12-19T06:52:16.199Z,18.1
2022-12-19T06:53:25.355Z,18.1
2022-12-19T06:54:34.474Z,18.2
2022-12-19T06:55:43.634Z,18.2
2022-12-19T06:56:52.763Z,18.2
2022-12-19T06:58:02.881Z,18.2
2022-12-19T06:59:12.991Z,18.2
2022-12-19T07:00:23.109Z,18.2
2022-12-19T07:01:33.213Z,18.2
2022-12-19T07:02:43.338Z,18.2
2022-12-19T07:03:53.448Z,18.2
2022-12-19T07:05:03.570Z,18.3
2022-12-19T07:06:13.676Z,18.3
2022-12-19T07:07:23.818Z,18.3
2022-12-19T07:08:33.000Z,18.3
2022-12-19T07:09:44.040Z,18.3
2022-12-19T07:10:54.139Z,18.3
2022-12-19T07:12:03.281Z,18.3
2022-12-19T07:13:13.391Z,18.3
2022-12-19T07:14:23.514Z,18.3
2022-12-19T07:15:33.627Z,18.3
2022-12-19T07:16:43.733Z,18.4
2022-12-19T07:17:53.848Z,18.4
2022-12-19T07:19:03.964Z,18.4
2022-12-19T07:20:13.121Z,18.4
2022-12-19T07:21:22.240Z,18.4
2022-12-19T07:22:31.381Z,18.4
2022-12-19T07:23:40.513Z,18.4
2022-12-19T07:24:49.669Z,18.4
2022-12-19T07:25:58.803Z,18.4
2022-12-19T07:27:08.907Z,18.4
2022-12-19T07:28:19.029Z,18.4
2022-12-19T07:29:29.139Z,18.4
2022-12-19T07:30:39.271Z,18.5
2022-12-19T07:31:49.386Z,18.5
2022-12-19T07:32:59.491Z,18.5
2022-12-19T07:35:19.731Z,18.5
2022-12-19T07:36:29.837Z,18.5
2022-12-19T07:37:39.953Z,18.5
2022-12-19T07:38:50.073Z,18.5
2022-12-19T07:40:00.181Z,18.5
2022-12-19T07:41:09.329Z,18.6
2022-12-19T07:42:19.443Z,18.5
2022-12-19T07:43:29.554Z,18.6
2022-12-19T07:44:39.661Z,18.6
2022-12-19T07:45:49.779Z,18.6
2022-12-19T07:46:59.893Z,18.6
2022-12-19T07:48:10.025Z,18.6
2022-12-19T07:49:20.144Z,18.6
2022-12-19T07:50:29.285Z,18.6
2022-12-19T07:51:38.411Z,18.6
2022-12-19T07:52:47.543Z,18.6
2022-12-19T07:53:56.690Z,18.6
2022-12-19T07:55:06.000Z,18.6
2022-12-19T07:56:16.924Z,18.6
2022-12-19T07:57:27.037Z,18.6
2022-12-19T07:58:37.154Z,18.6
2022-12-19T07:59:47.255Z,18.6
2022-12-19T08:00:57.386Z,18.7
2022-12-19T08:02:07.490Z,18.7
2022-12-19T08:03:17.618Z,18.7
2022-12-19T08:04:27.745Z,18.7
2022-12-19T08:05:37.844Z,18.7
2022-12-19T08:06:47.950Z,18.7
2022-12-19T08:07:58.078Z,18.7
2022-12-19T08:09:07.204Z,18.7
2022-12-19T08:10:17.000Z,18.7
2022-12-19T08:11:27.000Z,18.7
2022-12-19T08:12:37.551Z,18.7
2022-12-19T08:13:47.667Z,18.7
2022-12-19T08:16:07.895Z,18.7
2022-12-19T08:17:18.006Z,18.8
2022-12-19T08:18:27.164Z,18.8
2022-12-19T08:20:46.400Z,18.8
2022-12-19T08:21:56.514Z,18.8
2022-12-19T08:23:06.631Z,18.8
2022-12-19T08:24:16.753Z,18.8
2022-12-19T08:25:25.903Z,18.8
2022-12-19T08:26:35.025Z,18.8
2022-12-19T08:27:45.142Z,18.8
2022-12-19T08:28:55.252Z,18.8
2022-12-19T08:30:05.367Z,18.8
2022-12-19T08:31:15.489Z,18.8
2022-12-19T08:33:35.731Z,18.8
2022-12-19T08:34:45.000Z,18.8
2022-12-19T08:37:06.074Z,18.9
2022-12-19T08:38:16.187Z,18.9
2022-12-19T08:39:26.303Z,18.9
2022-12-19T08:41:45.000Z,18.9
2022-12-19T08:45:14.966Z,18.9
2022-12-19T08:46:24.000Z,18.9
2022-12-19T08:47:33.213Z,18.9
2022-12-19T08:48:43.324Z,18.9
2022-12-19T08:49:53.437Z,18.9
2022-12-19T08:51:03.550Z,18.9
2022-12-19T08:52:13.000Z,18.9
2022-12-19T08:53:23.826Z,18.9
2022-12-19T08:54:33.905Z,19
2022-12-19T08:55:44.026Z,19
2022-12-19T08:56:54.138Z,19
2022-12-19T08:58:04.254Z,19
2022-12-19T08:59:13.000Z,19
2022-12-19T09:00:22.527Z,19
2022-12-19T09:01:32.630Z,19
2022-12-19T09:02:42.764Z,19
2022-12-19T09:03:52.870Z,19
2022-12-19T09:05:02.986Z,19
2022-12-19T09:06:13.108Z,19
2022-12-19T09:07:23.222Z,19
2022-12-19T09:08:33.339Z,19
2022-12-19T09:09:43.455Z,19
2022-12-19T09:10:53.562Z,19
2022-12-19T09:12:03.000Z,19
2022-12-19T09:13:13.787Z,19
2022-12-19T09:14:23.911Z,19.1
2022-12-19T09:15:33.038Z,19.1
2022-12-19T09:16:43.163Z,19.1
2022-12-19T09:17:53.281Z,19.1
2022-12-19T09:19:03.388Z,19.1
2022-12-19T09:20:13.514Z,19.2
2022-12-19T09:21:23.630Z,19.2
2022-12-19T09:23:43.000Z,19.2
2022-12-19T09:24:53.007Z,19.3
2022-12-19T09:26:02.132Z,19.3
2022-12-19T09:27:12.240Z,19.3
2022-12-19T09:28:22.357Z,19.3
2022-12-19T09:30:42.590Z,19.4
2022-12-19T09:31:52.715Z,19.4
2022-12-19T09:33:02.000Z,19.4
2022-12-19T09:34:12.935Z,19.5
2022-12-19T09:35:23.000Z,19.5
2022-12-19T09:36:33.183Z,19.5
2022-12-19T09:37:43.291Z,19.5
2022-12-19T09:38:53.395Z,19.5
2022-12-19T09:40:03.528Z,19.5
2022-12-19T09:41:12.648Z,19.6
2022-12-19T09:42:22.777Z,19.6
2022-12-19T09:43:32.889Z,19.6
2022-12-19T09:44:43.009Z,19.7
2022-12-19T09:45:53.108Z,19.7
2022-12-19T09:47:03.238Z,19.7
2022-12-19T09:48:13.366Z,19.7
2022-12-19T09:49:23.462Z,19.8
2022-12-19T09:50:32.600Z,19.8
2022-12-19T09:51:41.766Z,19.8
2022-12-19T09:52:51.849Z,19.8
2022-12-19T09:54:01.963Z,19.8
2022-12-19T09:55:12.096Z,19.9
2022-12-19T09:56:21.239Z,19.9
2022-12-19T09:57:30.365Z,19.9
2022-12-19T09:58:40.485Z,19.9
2022-12-19T09:59:50.591Z,19.9
2022-12-19T10:01:00.717Z,20
2022-12-19T10:02:10.822Z,20
2022-12-19T10:03:20.940Z,20
2022-12-19T10:04:31.067Z,20
2022-12-19T10:05:41.207Z,20.1
2022-12-19T10:06:51.281Z,20.1
2022-12-19T10:08:01.000Z,20.1
2022-12-19T10:09:11.522Z,20.1
2022-12-19T10:10:21.634Z,20.2
2022-12-19T10:11:31.748Z,20.2
2022-12-19T10:12:40.884Z,20.2
2022-12-19T10:13:51.026Z,20.2
2022-12-19T10:15:01.000Z,20.2
2022-12-19T10:16:11.222Z,20.3
2022-12-19T10:17:21.344Z,20.3
2022-12-19T10:18:31.459Z,20.3
2022-12-19T10:19:41.590Z,20.3
2022-12-19T10:22:00.835Z,20.3
2022-12-19T10:23:09.975Z,20.4
2022-12-19T10:24:19.115Z,20.4
2022-12-19T10:25:29.228Z,20.4
2022-12-19T10:26:39.000Z,20.4
2022-12-19T10:27:49.470Z,20.4
2022-12-19T10:28:59.579Z,20.4
2022-12-19T10:30:09.699Z,20.5
2022-12-19T10:31:19.812Z,20.5
2022-12-19T10:32:29.923Z,20.5
2022-12-19T10:33:40.034Z,20.5
2022-12-19T10:34:50.168Z,20.5
2022-12-19T10:36:00.266Z,20.5
2022-12-19T10:37:10.397Z,20.5
2022-12-19T10:38:20.505Z,20.5
2022-12-19T10:39:29.634Z,20.6
2022-12-19T10:40:39.754Z,20.6
2022-12-19T10:41:49.878Z,20.6
2022-12-19T10:42:59.982Z,20.6
2022-12-19T10:44:10.109Z,20.6
2022-12-19T10:45:20.209Z,20.6
2022-12-19T10:47:40.448Z,20.6
2022-12-19T10:48:49.595Z,20.6
2022-12-19T10:49:58.725Z,20.6
2022-12-19T10:51:07.875Z,20.6
2022-12-19T10:52:17.008Z,20.7
2022-12-19T10:53:27.137Z,20.7
2022-12-19T10:54:37.241Z,20.6
2022-12-19T10:55:47.346Z,20.7
2022-12-19T10:56:57.469Z,20.6
2022-12-19T10:58:07.000Z,20.6
2022-12-19T10:59:17.698Z,20.6
2022-12-19T11:00:26.834Z,20.6
2022-12-19T11:01:35.977Z,20.6
2022-12-19T11:02:46.084Z,20.6
2022-12-19T11:05:06.315Z,20.5
2022-12-19T11:06:16.439Z,20.5
2022-12-19T11:07:26.543Z,20.5
2022-12-19T11:08:36.661Z,20.5
2022-12-19T11:09:46.782Z,20.5
2022-12-19T11:10:56.900Z,20.5
2022-12-19T11:12:07.010Z,20.5
2022-12-19T11:13:17.137Z,20.5
2022-12-19T11:14:27.254Z,20.5
2022-12-19T11:15:37.355Z,20.5
2022-12-19T11:17:56.601Z,20.5
2022-12-19T11:19:05.754Z,20.5
2022-12-19T11:20:14.887Z,20.5
2022-12-19T11:22:35.112Z,20.4
2022-12-19T11:23:45.244Z,20.4
2022-12-19T11:24:55.358Z,20.4
2022-12-19T11:27:15.578Z,20.4
2022-12-19T11:29:35.819Z,20.4
2022-12-19T11:30:45.924Z,20.4
2022-12-19T11:31:56.054Z,20.4
2022-12-19T11:33:06.170Z,20.4
2022-12-19T11:34:16.289Z,20.4
2022-12-19T11:35:25.419Z,20.4
2022-12-19T11:36:34.558Z,20.4
2022-12-19T11:37:44.679Z,20.4
2022-12-19T11:38:54.779Z,20.4
2022-12-19T11:40:04.910Z,20.4
2022-12-19T11:41:15.028Z,20.3
2022-12-19T11:42:25.138Z,20.3
2022-12-19T11:43:35.250Z,20.3
2022-12-19T11:45:55.483Z,20.3
2022-12-19T11:47:05.611Z,20.3
2022-12-19T11:48:15.724Z,20.3
2022-12-19T11:49:25.833Z,20.3
2022-12-19T11:50:35.950Z,20.3
2022-12-19T11:51:45.079Z,20.3
2022-12-19T11:52:55.207Z,20.3
2022-12-19T11:54:05.304Z,20.3
2022-12-19T11:55:15.448Z,20.2
2022-12-19T11:56:25.548Z,20.2
2022-12-19T11:57:35.656Z,20.2
2022-12-19T11:58:45.782Z,20.2
2022-12-19T11:59:55.886Z,20.2
2022-12-19T12:01:05.031Z,20.2
2022-12-19T12:02:14.158Z,20.2
2022-12-19T12:03:24.283Z,20.2
2022-12-19T12:04:34.402Z,20.2
2022-12-19T12:05:43.532Z,20.2
2022-12-19T12:06:52.674Z,20.2
2022-12-19T12:08:02.796Z,20.2
2022-12-19T12:09:12.904Z,20.1
2022-12-19T12:11:33.129Z,20.1
2022-12-19T12:12:43.249Z,20.1
2022-12-19T12:13:53.375Z,20.1
2022-12-19T12:15:03.479Z,20.1
2022-12-19T12:16:13.594Z,20.1
2022-12-19T12:17:23.720Z,20.1
2022-12-19T12:18:33.826Z,20.1
2022-12-19T12:19:43.943Z,20.1
2022-12-19T12:20:54.056Z,20.1
2022-12-19T12:22:03.196Z,20
2022-12-19T12:23:13.319Z,20
2022-12-19T12:24:23.436Z,20
2022-12-19T12:26:43.653Z,20
2022-12-19T12:27:52.794Z,20
2022-12-19T12:29:01.940Z,20
2022-12-19T12:30:12.000Z,20
2022-12-19T12:31:22.160Z,20
2022-12-19T12:32:32.290Z,20
2022-12-19T12:33:42.390Z,20
2022-12-19T12:34:52.000Z,20
2022-12-19T12:36:02.635Z,20
2022-12-19T12:37:12.743Z,20
2022-12-19T12:38:22.859Z,19.9
2022-12-19T12:39:32.977Z,19.9
2022-12-19T12:40:42.122Z,19.9
2022-12-19T12:41:51.259Z,19.9
2022-12-19T12:43:01.377Z,19.9
2022-12-19T12:44:11.493Z,19.9
2022-12-19T12:45:21.597Z,19.9
2022-12-19T12:46:31.719Z,19.9
2022-12-19T12:47:41.835Z,19.9
2022-12-19T12:48:51.948Z,19.9
2022-12-19T12:50:02.073Z,19.9
2022-12-19T12:51:12.174Z,19.9
2022-12-19T12:52:22.308Z,19.9
2022-12-19T12:53:31.449Z,19.9
2022-12-19T12:54:40.569Z,19.9
2022-12-19T12:55:50.698Z,19.9
2022-12-19T12:57:00.809Z,19.9
2022-12-19T12:58:10.927Z,19.9
2022-12-19T12:59:21.038Z,19.9
2022-12-19T13:00:31.148Z,19.9
2022-12-19T13:01:41.263Z,19.9
2022-12-19T13:02:51.395Z,19.9
2022-12-19T13:05:11.618Z,19.9
2022-12-19T13:06:21.735Z,19.9
2022-12-19T13:07:31.859Z,19.9
2022-12-19T13:08:41.967Z,19.9
2022-12-19T13:09:51.094Z,19.9
2022-12-19T13:11:01.206Z,19.9
2022-12-19T13:12:11.325Z,19.9
2022-12-19T13:13:21.451Z,19.9
2022-12-19T13:14:31.554Z,19.9
2022-12-19T13:15:41.713Z,19.9
2022-12-19T13:16:51.787Z,19.9
2022-12-19T13:18:01.915Z,19.9
2022-12-19T13:19:11.058Z,19.9
2022-12-19T13:20:20.214Z,19.9
2022-12-19T13:21:30.000Z,19.9
2022-12-19T13:22:39.444Z,19.9
2022-12-19T13:23:48.584Z,19.9
2022-12-19T13:24:58.689Z,19.9
2022-12-19T13:26:08.798Z,19.9
2022-12-19T13:27:18.929Z,19.9
2022-12-19T13:28:29.047Z,19.9
2022-12-19T13:29:39.157Z,19.9
2022-12-19T13:30:49.276Z,19.9
2022-12-19T13:31:59.383Z,19.9
2022-12-19T13:33:09.496Z,19.9
2022-12-19T13:34:19.613Z,19.9
2022-12-19T13:35:29.733Z,19.9
2022-12-19T13:36:39.853Z,19.9
2022-12-19T13:37:49.000Z,19.9
2022-12-19T13:38:59.108Z,19.9
2022-12-19T13:40:09.215Z,19.9
2022-12-19T13:41:19.329Z,19.9
2022-12-19T13:42:29.453Z,20
2022-12-19T13:43:39.594Z,20
2022-12-19T13:44:49.716Z,20
2022-12-19T13:45:59.828Z,20
2022-12-19T13:48:19.098Z,20.1
2022-12-19T13:49:28.232Z,20.1
2022-12-19T13:50:37.372Z,20.1
2022-12-19T13:51:47.493Z,20.1
2022-12-19T13:52:57.592Z,20.2
2022-12-19T13:54:07.725Z,20.2
2022-12-19T13:55:17.836Z,20.2
2022-12-19T13:56:27.951Z,20.2
2022-12-19T13:57:37.094Z,20.2
2022-12-19T13:58:46.230Z,20.2
2022-12-19T13:59:56.345Z,20.3
2022-12-19T14:01:06.000Z,20.3
2022-12-19T14:02:16.582Z,20.3
2022-12-19T14:03:26.685Z,20.3
2022-12-19T14:04:36.798Z,20.3
2022-12-19T14:05:46.927Z,20.4
2022-12-19T14:06:57.044Z,20.4
2022-12-19T14:08:07.158Z,20.4
2022-12-19T14:09:17.266Z,20.4
2022-12-19T14:10:27.386Z,20.4
2022-12-19T14:11:37.491Z,20.4
2022-12-19T14:12:47.621Z,20.4
2022-12-19T14:13:56.750Z,20.4
2022-12-19T14:15:06.898Z,20.4
2022-12-19T14:16:16.999Z,20.4
2022-12-19T14:17:27.120Z,20.4
2022-12-19T14:18:37.237Z,20.4
2022-12-19T14:19:47.350Z,20.5
2022-12-19T14:20:57.463Z,20.5
2022-12-19T14:24:26.845Z,20.5
2022-12-19T14:25:35.987Z,20.5
2022-12-19T14:26:45.123Z,20.5
2022-12-19T14:27:55.240Z,20.5
2022-12-19T14:29:05.353Z,20.5
2022-12-19T14:31:25.582Z,20.5
2022-12-19T14:32:35.695Z,20.5
2022-12-19T14:33:45.820Z,20.5
2022-12-19T14:34:55.938Z,20.5
2022-12-19T14:36:06.049Z,20.5
2022-12-19T14:37:16.169Z,20.5
2022-12-19T14:38:26.286Z,20.5
2022-12-19T14:39:36.390Z,20.5
2022-12-19T14:40:46.505Z,20.5
2022-12-19T14:41:55.643Z,20.5
2022-12-19T14:43:05.764Z,20.5
2022-12-19T14:44:15.873Z,20.5
2022-12-19T14:45:25.997Z,20.5
2022-12-19T14:46:36.100Z,20.5
2022-12-19T14:47:46.233Z,20.5
2022-12-19T14:48:56.338Z,20.5
2022-12-19T14:50:06.452Z,20.5
2022-12-19T14:51:15.590Z,20.5
2022-12-19T14:52:24.735Z,20.5
2022-12-19T14:54:44.968Z,20.5
2022-12-19T14:55:55.072Z,20.5
2022-12-19T14:57:05.191Z,20.5
2022-12-19T14:58:15.307Z,20.5
2022-12-19T14:59:25.432Z,20.5
2022-12-19T15:00:35.543Z,20.5
2022-12-19T15:01:45.659Z,20.5
2022-12-19T15:02:55.784Z,20.4
2022-12-19T15:04:05.896Z,20.5
2022-12-19T15:05:16.018Z,20.4
2022-12-19T15:06:26.134Z,20.5
2022-12-19T15:07:35.260Z,20.4
2022-12-19T15:08:45.380Z,20.4
2022-12-19T15:09:55.481Z,20.4
2022-12-19T15:11:05.611Z,20.4
2022-12-19T15:12:15.726Z,20.4
2022-12-19T15:13:25.828Z,20.4
2022-12-19T15:14:34.974Z,20.4
2022-12-19T15:15:45.087Z,20.4
2022-12-19T15:16:54.230Z,20.4
2022-12-19T15:18:03.369Z,20.4
2022-12-19T15:21:33.714Z,20.4
2022-12-19T15:22:43.831Z,20.5
2022-12-19T15:23:53.938Z,20.5
2022-12-19T15:25:04.073Z,20.5
2022-12-19T15:26:14.195Z,20.5
2022-12-19T15:27:24.287Z,20.5
2022-12-19T15:28:34.421Z,20.5
2022-12-19T15:29:44.537Z,20.5
2022-12-19T15:30:54.654Z,20.5
2022-12-19T15:32:03.795Z,20.5
2022-12-19T15:33:12.928Z,20.6
2022-12-19T15:34:23.045Z,20.6
2022-12-19T15:35:32.176Z,20.6
2022-12-19T15:36:41.304Z,20.6
2022-12-19T15:37:51.418Z,20.6
2022-12-19T15:39:00.572Z,20.6
2022-12-19T15:40:09.693Z,20.6
2022-12-19T15:41:19.827Z,20.6
2022-12-19T15:42:29.939Z,20.6
2022-12-19T15:43:40.047Z,20.6
2022-12-19T15:44:50.166Z,20.6
2022-12-19T15:46:00.276Z,20.6
2022-12-19T15:47:10.406Z,20.6
2022-12-19T15:49:30.633Z,20.6
2022-12-19T15:50:40.738Z,20.6
2022-12-19T15:51:50.860Z,20.7
2022-12-19T15:53:00.969Z,20.7
2022-12-19T15:54:11.000Z,20.7
2022-12-19T15:55:21.000Z,20.7
2022-12-19T15:56:30.342Z,20.7
2022-12-19T15:57:40.451Z,20.7
2022-12-19T15:58:50.584Z,20.7
2022-12-19T16:00:00.688Z,20.7
2022-12-19T16:01:10.815Z,20.7
2022-12-19T16:02:20.920Z,20.7
2022-12-19T16:03:31.039Z,20.7
2022-12-19T16:04:40.183Z,20.7
2022-12-19T16:05:49.309Z,20.8
2022-12-19T16:06:59.423Z,20.8
2022-12-19T16:09:19.652Z,20.8
2022-12-19T16:10:28.804Z,20.8
2022-12-19T16:11:37.940Z,20.8
2022-12-19T16:12:48.052Z,20.8
2022-12-19T16:13:58.174Z,20.8
2022-12-19T16:15:08.290Z,20.8
2022-12-19T16:16:18.391Z,20.8
2022-12-19T16:17:28.525Z,20.8
2022-12-19T16:18:38.638Z,20.8
2022-12-19T16:19:48.747Z,20.8
2022-12-19T16:20:58.872Z,20.8
2022-12-19T16:22:08.987Z,20.8
2022-12-19T16:23:19.098Z,20.8
2022-12-19T16:24:29.208Z,20.8
2022-12-19T16:25:39.332Z,20.8
2022-12-19T16:26:48.461Z,20.8
2022-12-19T16:27:58.570Z,20.8
2022-12-19T16:29:08.696Z,20.8
2022-12-19T16:31:28.929Z,20.8
2022-12-19T16:32:39.049Z,20.8
2022-12-19T16:33:49.155Z,20.8
2022-12-19T16:34:59.278Z,20.8
2022-12-19T16:36:08.424Z,20.8
2022-12-19T16:37:17.548Z,20.8
2022-12-19T16:38:27.667Z,20.8
2022-12-19T16:39:37.775Z,20.8